Terminal Aerodrome Forecast
Issued by NWS

Home | Current Version | Previous Version | Text Only | Print | Product List | Glossary On
Versions: 1 2 3 4 5 6 7 8 9 10 11 12 13 14 15 16
491
FTUS43 KAPX 231120
TAFAPN
TAF
KAPN 231120Z 2312/2412 00000KT P6SM SCT200
     FM231500 20006KT P6SM SCT150
     FM231700 19010G18KT P6SM BKN100
     FM232300 16008KT P6SM OVC080
     FM240200 17008KT P6SM OVC080 WS020/19035KT
     FM240500 18009KT P6SM -FZRA OVC050 WS020/19035KT
     FM240700 17007KT 6SM -FZRA OVC035 WS020/22035KT
     FM240900 16004KT 6SM -FZRA OVC010 WS020/22035KT=

USA.gov is the U.S. government's official web portal to all federal, state and local government web resources and services.